Time;durP1;ratioP1;P1;durP2;ratioP2;P2;SDS_P1;SDS_P2;PMS_P1;PMS_P2;Temp;Humidity;BMP_temperature;BMP_pressure;BME280_temperature;BME280_humidity;BME280_pressure;Samples;Min_cycle;Max_cycle;Signal;HPM_P1;HPM_P2
2023/04/20 00:02:20;;;;;;;8.80;7.90;;;5.30;99.90;;;-141.84;82.93;19159.47;5034340;28;20584;-54
2023/04/20 00:04:48;;;;;;;8.63;7.37;;;5.20;99.90;;;-141.84;81.93;19120.88;5034599;28;20234;-57
2023/04/20 00:07:16;;;;;;;9.10;8.20;;;5.30;99.90;;;-141.84;81.60;19122.91;5034208;28;20264;-56
2023/04/20 00:09:45;;;;;;;8.50;7.70;;;5.20;99.90;;;-141.84;81.27;19147.28;5034483;28;20205;-56
2023/04/20 00:12:14;;;;;;;9.60;8.60;;;5.30;99.90;;;-141.84;80.76;19120.88;5034442;28;20213;-55
2023/04/20 00:14:42;;;;;;;9.50;7.83;;;5.30;99.90;;;-141.84;81.55;19157.44;5033865;28;20700;-56
2023/04/20 00:17:10;;;;;;;9.13;8.07;;;5.20;99.90;;;-141.84;81.68;19131.03;5034499;28;20292;-76
2023/04/20 00:19:39;;;;;;;8.63;7.73;;;5.20;99.90;;;-141.84;82.41;19092.41;5034684;28;20291;-74
2023/04/20 00:22:07;;;;;;;9.20;8.20;;;5.10;99.90;;;-141.84;82.47;19122.91;5034694;28;20217;-74
2023/04/20 00:24:35;;;;;;;8.60;7.40;;;5.30;99.90;;;-141.84;82.17;19161.50;5034426;28;20546;-75
2023/04/20 00:27:03;;;;;;;8.07;7.27;;;5.30;99.90;;;-141.84;82.08;19122.91;5034468;28;20255;-74
2023/04/20 00:29:34;;;;;;;7.80;7.10;;;5.30;99.90;;;-141.84;82.66;19141.19;5038943;28;20212;-75
2023/04/20 00:32:02;;;;;;;8.47;7.57;;;5.30;99.90;;;-141.84;82.34;19149.31;5041825;28;20193;-75
2023/04/20 00:34:30;;;;;;;9.67;7.50;;;5.40;99.90;;;-141.84;81.59;19120.88;5040353;28;20214;-74
2023/04/20 00:36:58;;;;;;;8.20;7.37;;;5.40;99.90;;;-141.84;82.00;19153.38;5034344;28;20224;-74
2023/04/20 00:39:26;;;;;;;7.50;6.80;;;5.40;99.90;;;-141.84;82.37;19151.34;5034540;28;20209;-75
2023/04/20 00:41:55;;;;;;;8.47;7.33;;;5.30;99.90;;;-141.84;82.28;19126.97;5035349;28;20205;-75
2023/04/20 00:44:23;;;;;;;8.30;7.40;;;5.30;99.90;;;-141.84;81.97;19143.22;5033679;28;20217;-74
2023/04/20 00:46:55;;;;;;;7.80;7.00;;;5.40;99.90;;;-141.84;81.71;19118.84;5033785;28;20229;-75
2023/04/20 00:49:27;;;;;;;8.13;7.33;;;5.40;99.90;;;-141.84;82.68;19131.03;5033820;28;20646;-74
2023/04/20 00:51:55;;;;;;;8.53;7.60;;;5.30;99.90;;;-141.84;83.17;19124.94;5034446;28;20189;-73
2023/04/20 00:54:25;;;;;;;8.03;7.27;;;5.20;99.90;;;-141.84;83.25;19122.91;5034118;28;20206;-75
2023/04/20 00:56:56;;;;;;;9.07;7.10;;;5.20;99.90;;;-141.84;83.03;19112.75;5033961;28;20207;-74
2023/04/20 00:59:25;;;;;;;8.47;7.53;;;5.20;99.90;;;-141.84;82.31;19133.06;5039628;28;20236;-74
2023/04/20 01:01:54;;;;;;;8.20;7.40;;;5.30;99.90;;;-141.84;81.93;19143.22;5053743;28;20208;-73
2023/04/20 01:04:23;;;;;;;9.03;8.07;;;5.30;99.90;;;-141.84;82.27;19153.38;5053813;28;20261;-76
2023/04/20 01:06:51;;;;;;;7.63;6.93;;;5.30;99.90;;;-141.84;81.90;19141.19;5053343;28;20312;-74
2023/04/20 01:09:20;;;;;;;8.27;6.90;;;5.30;99.90;;;-141.84;82.39;19143.22;5053760;28;20211;-74
2023/04/20 01:11:49;;;;;;;8.33;7.53;;;5.20;99.90;;;-141.84;82.43;19135.09;5053679;28;20201;-74
2023/04/20 01:14:17;;;;;;;8.00;7.20;;;5.30;99.90;;;-141.84;82.17;19114.78;5053655;28;20212;-74
2023/04/20 01:16:46;;;;;;;8.20;7.40;;;5.20;99.90;;;-141.84;82.34;19163.53;5036191;28;20206;-74
2023/04/20 01:19:15;;;;;;;8.00;7.27;;;5.30;99.90;;;-141.84;82.57;19151.34;5033778;28;20228;-75
2023/04/20 01:21:44;;;;;;;9.43;8.40;;;5.30;99.90;;;-141.84;82.47;19120.88;5033995;28;20187;-75
2023/04/20 01:24:13;;;;;;;7.63;6.93;;;5.40;99.90;;;-141.84;82.83;19126.97;5034716;28;20225;-76
2023/04/20 01:26:41;;;;;;;8.90;8.00;;;5.40;99.90;;;-141.84;82.99;19124.94;5033006;28;20244;-74
2023/04/20 01:29:10;;;;;;;8.03;7.23;;;5.40;99.90;;;-141.84;82.90;19139.16;5033082;28;20215;-74
2023/04/20 01:31:38;;;;;;;8.20;7.40;;;5.40;99.90;;;-141.84;82.27;19122.91;5033115;28;20227;-74
2023/04/20 01:34:06;;;;;;;8.37;7.47;;;5.40;99.90;;;-141.84;81.99;19118.84;5033150;28;20205;-75
2023/04/20 01:36:34;;;;;;;8.73;7.93;;;5.40;99.90;;;-141.84;81.78;19135.09;5034625;28;20205;-75
2023/04/20 01:39:02;;;;;;;7.77;6.97;;;5.40;99.90;;;-141.84;81.47;19135.09;5035101;28;20204;-74
2023/04/20 01:41:32;;;;;;;7.67;6.97;;;5.40;99.90;;;-141.84;81.57;19139.16;5034198;28;20212;-73
2023/04/20 01:44:00;;;;;;;7.97;7.17;;;5.40;99.90;;;-141.84;81.77;19139.16;5033568;28;20317;-74
2023/04/20 01:46:28;;;;;;;8.27;7.47;;;5.40;99.90;;;-141.84;82.41;19114.78;5034198;28;20232;-74
2023/04/20 01:48:56;;;;;;;7.83;6.47;;;5.40;99.90;;;-141.84;82.21;19122.91;5033293;28;20229;-74
2023/04/20 01:51:25;;;;;;;7.30;6.60;;;5.40;99.90;;;-141.84;81.84;19139.16;5033870;28;20209;-73
2023/04/20 01:53:53;;;;;;;7.77;6.97;;;5.40;99.90;;;-141.84;81.37;19118.84;5033619;28;20696;-74
2023/04/20 01:56:21;;;;;;;7.43;6.73;;;5.30;99.90;;;-141.84;81.84;19118.84;5034016;28;20205;-73
2023/04/20 01:58:50;;;;;;;8.40;7.00;;;5.30;99.90;;;-141.84;82.28;19084.28;5033872;28;20205;-73
2023/04/20 02:01:18;;;;;;;7.57;6.77;;;5.30;99.90;;;-141.84;82.30;19141.19;5033496;28;20216;-75
2023/04/20 02:03:48;;;;;;;8.03;7.23;;;5.30;99.90;;;-141.84;82.88;19110.72;5033547;28;20240;-76
2023/04/20 02:06:17;;;;;;;7.93;7.23;;;5.30;99.90;;;-141.84;82.97;19157.44;5032855;28;20200;-74
2023/04/20 02:08:45;;;;;;;8.30;6.93;;;5.30;99.90;;;-141.84;82.90;19084.28;5033084;28;20724;-74
2023/04/20 02:11:14;;;;;;;7.10;6.40;;;5.20;99.90;;;-141.84;83.82;19112.75;5033044;28;20205;-74
2023/04/20 02:13:42;;;;;;;8.47;7.63;;;5.20;99.90;;;-141.84;83.71;19141.19;5032851;28;20211;-75
2023/04/20 02:16:11;;;;;;;7.63;6.93;;;5.30;99.90;;;-141.84;83.15;19102.56;5032210;28;20202;-74
2023/04/20 02:18:40;;;;;;;7.17;6.47;;;5.30;99.90;;;-141.84;83.29;19112.75;5032263;28;20201;-75
2023/04/20 02:21:08;;;;;;;8.57;7.73;;;5.30;99.90;;;-141.84;82.97;19137.13;5032005;28;20208;-74
2023/04/20 02:23:36;;;;;;;8.00;7.20;;;5.30;99.90;;;-141.84;82.67;19100.53;5033458;28;20235;-75
2023/04/20 02:26:04;;;;;;;7.80;7.10;;;5.30;99.90;;;-141.84;82.12;19141.19;5032103;28;20234;-74
2023/04/20 02:28:32;;;;;;;8.37;7.30;;;5.30;99.90;;;-141.84;82.12;19149.31;5032064;28;20221;-75
2023/04/20 02:31:00;;;;;;;7.30;6.60;;;5.40;99.90;;;-141.84;82.67;19106.66;5031687;28;20206;-75
2023/04/20 02:33:31;;;;;;;7.10;6.40;;;5.30;99.90;;;-141.84;83.73;19106.66;5032096;28;20292;-74
2023/04/20 02:35:59;;;;;;;7.33;6.63;;;5.30;99.90;;;-141.84;84.06;19088.34;5032062;28;20186;-74
2023/04/20 02:38:27;;;;;;;8.93;7.70;;;5.20;99.90;;;-141.84;83.91;19090.38;5031801;28;20572;-75
2023/04/20 02:40:56;;;;;;;9.07;7.60;;;5.20;99.90;;;-141.84;84.18;19106.66;5032129;28;20205;-76
2023/04/20 02:43:24;;;;;;;8.60;7.70;;;5.20;99.90;;;-141.84;83.77;19098.50;5031934;28;20216;-75
2023/04/20 02:45:52;;;;;;;8.70;7.80;;;5.20;99.90;;;-141.84;83.99;19090.38;5031331;28;20692;-75
2023/04/20 02:48:20;;;;;;;9.30;7.77;;;5.30;99.90;;;-141.84;83.54;19116.81;5031748;28;20232;-75
2023/04/20 02:50:50;;;;;;;8.67;7.40;;;5.30;99.90;;;-141.84;83.74;19118.84;5031863;28;20225;-74
2023/04/20 02:53:18;;;;;;;9.10;8.20;;;5.30;99.90;;;-141.84;83.92;19094.44;5031561;28;20210;-73
2023/04/20 02:55:46;;;;;;;9.17;8.20;;;5.30;99.90;;;-141.84;84.35;19118.84;5032090;28;20216;-74
2023/04/20 02:58:16;;;;;;;8.93;8.00;;;5.30;99.90;;;-141.84;84.17;19086.31;5031375;28;20718;-75
2023/04/20 03:00:44;;;;;;;8.77;7.87;;;5.40;99.90;;;-141.84;83.79;19106.66;5034695;28;20299;-75
2023/04/20 03:03:13;;;;;;;9.63;8.53;;;5.40;99.90;;;-141.84;84.39;19094.44;5035878;28;20272;-74
2023/04/20 03:05:42;;;;;;;9.23;7.97;;;5.30;99.90;;;-141.84;83.34;19145.25;5035631;28;20676;-75
2023/04/20 03:08:11;;;;;;;8.63;7.73;;;5.40;99.90;;;-141.84;82.67;19102.56;5035661;28;20595;-75
2023/04/20 03:10:39;;;;;;;10.00;7.80;;;5.50;99.90;;;-141.84;82.88;19108.69;5035895;28;20259;-74
2023/04/20 03:13:08;;;;;;;8.63;7.40;;;5.50;99.90;;;-141.84;83.29;19092.41;5035603;28;20216;-74
2023/04/20 03:15:38;;;;;;;8.23;7.43;;;5.40;99.90;;;-141.84;83.28;19118.84;5035422;28;20197;-75
2023/04/20 03:18:06;;;;;;;7.67;6.93;;;5.40;99.90;;;-141.84;83.47;19118.84;5035383;28;20202;-75
2023/04/20 03:20:34;;;;;;;8.23;7.43;;;5.30;99.90;;;-141.84;82.85;19080.22;5035723;28;20202;-74
2023/04/20 03:23:02;;;;;;;7.40;6.40;;;5.40;99.90;;;-141.84;82.82;19118.84;5035479;28;20205;-75
2023/04/20 03:25:32;;;;;;;7.30;6.50;;;5.40;99.90;;;-141.84;82.81;19131.03;5035249;28;20230;-74
2023/04/20 03:28:00;;;;;;;6.73;6.00;;;5.40;99.90;;;-141.84;82.23;19102.56;5035179;28;20214;-74
2023/04/20 03:30:29;;;;;;;6.57;5.60;;;5.40;99.90;;;-141.84;82.31;19110.72;5034745;28;20210;-74
2023/04/20 03:32:57;;;;;;;6.67;6.00;;;5.40;99.90;;;-141.84;82.69;19112.75;5035282;28;20297;-74
2023/04/20 03:35:25;;;;;;;6.60;5.83;;;5.30;99.90;;;-141.84;82.72;19118.84;5035385;28;20210;-76
2023/04/20 03:37:54;;;;;;;5.03;4.53;;;5.40;99.90;;;-141.84;81.93;19126.97;5035301;28;20212;-75
2023/04/20 03:40:22;;;;;;;4.90;4.27;;;5.40;99.90;;;-141.84;81.27;19098.50;5034990;28;20296;-75
2023/04/20 03:42:52;;;;;;;4.70;4.23;;;5.40;99.90;;;-141.84;82.02;19092.41;5035123;28;20208;-74
2023/04/20 03:45:20;;;;;;;4.10;3.77;;;5.40;99.90;;;-141.84;81.71;19133.06;5034424;28;20206;-75
2023/04/20 03:47:48;;;;;;;3.80;3.40;;;5.30;99.90;;;-141.84;81.57;19129.00;5034926;28;20229;-74
2023/04/20 03:50:16;;;;;;;3.80;3.40;;;5.30;99.90;;;-141.84;81.43;19112.75;5034712;28;20755;-73
2023/04/20 03:52:44;;;;;;;3.70;3.30;;;5.30;99.90;;;-141.84;80.52;19129.00;5034610;28;20210;-75
2023/04/20 03:55:13;;;;;;;4.00;3.60;;;5.30;99.90;;;-141.84;81.24;19129.00;5034873;28;20292;-76
2023/04/20 03:57:41;;;;;;;3.70;3.40;;;5.30;99.90;;;-141.84;81.83;19143.22;5034777;28;20216;-75
2023/04/20 04:00:12;;;;;;;4.00;3.57;;;5.30;99.90;;;-141.84;81.14;19143.22;5034267;28;20224;-76
2023/04/20 04:02:41;;;;;;;4.00;3.63;;;5.40;99.90;;;-141.84;80.88;19098.50;5034800;28;20557;-73
2023/04/20 04:05:09;;;;;;;4.17;3.73;;;5.40;99.90;;;-141.84;81.61;19110.72;5034613;28;20214;-75
2023/04/20 04:07:38;;;;;;;4.03;3.60;;;5.40;99.90;;;-141.84;81.57;19118.84;5034090;28;20245;-75
2023/04/20 04:10:09;;;;;;;3.30;3.00;;;5.40;99.90;;;-141.84;80.87;19167.59;5034573;28;20210;-74
2023/04/20 04:12:37;;;;;;;3.77;3.37;;;5.40;99.90;;;-141.84;80.69;19135.09;5033763;28;20194;-76
2023/04/20 04:15:07;;;;;;;3.93;3.53;;;5.40;99.90;;;-141.84;80.44;19133.06;5034143;28;20201;-74
2023/04/20 04:17:37;;;;;;;4.23;3.67;;;5.40;99.90;;;-141.84;80.48;19129.00;5034482;28;20231;-74
2023/04/20 04:20:08;;;;;;;3.90;3.60;;;5.40;99.90;;;-141.84;80.50;19100.53;5034404;28;20268;-75
2023/04/20 04:22:36;;;;;;;3.67;3.27;;;5.40;99.90;;;-141.84;81.66;19108.69;5034463;28;20196;-75
2023/04/20 04:25:05;;;;;;;3.83;3.43;;;5.30;99.90;;;-141.84;81.87;19108.69;5034361;28;20205;-75
2023/04/20 04:27:34;;;;;;;3.70;3.40;;;5.30;99.90;;;-141.84;81.63;19100.53;5033811;28;20291;-75
2023/04/20 04:30:03;;;;;;;4.10;3.70;;;5.30;99.90;;;-141.84;81.91;19094.44;5033852;28;20212;-75
2023/04/20 04:32:33;;;;;;;3.77;3.33;;;5.30;99.90;;;-141.84;82.09;19102.56;5034186;28;20205;-74
2023/04/20 04:35:03;;;;;;;5.00;4.10;;;5.30;99.90;;;-141.84;82.14;19118.84;5034207;28;20216;-75
2023/04/20 04:37:31;;;;;;;3.90;3.50;;;5.30;99.90;;;-141.84;81.75;19088.34;5034653;28;20206;-77
2023/04/20 04:40:01;;;;;;;3.47;3.17;;;5.30;99.90;;;-141.84;81.34;19106.66;5033730;28;20705;-74
2023/04/20 04:42:31;;;;;;;4.33;3.93;;;5.30;99.90;;;-141.84;81.13;19143.22;5034091;28;20209;-75
2023/04/20 04:45:00;;;;;;;4.80;4.40;;;5.30;99.90;;;-141.84;81.11;19120.88;5033582;28;20206;-75
2023/04/20 04:47:29;;;;;;;4.33;3.93;;;5.30;99.90;;;-141.84;80.05;19177.75;5033749;28;20194;-76
2023/04/20 04:49:59;;;;;;;4.17;3.77;;;5.40;99.90;;;-141.84;79.12;19169.63;5033665;28;20225;-78
2023/04/20 04:52:30;;;;;;;4.23;3.80;;;5.60;99.90;;;-141.84;78.49;19192.00;5033850;28;20193;-75
2023/04/20 04:54:58;;;;;;;4.40;4.00;;;5.60;99.90;;;-141.84;79.32;19177.75;5033427;28;20200;-75
2023/04/20 04:57:26;;;;;;;4.40;4.00;;;5.60;99.90;;;-141.84;79.76;19141.19;5033381;28;20208;-76
2023/04/20 04:59:54;;;;;;;4.83;4.33;;;5.60;99.90;;;-141.84;79.61;19145.25;5033411;28;20213;-75
2023/04/20 05:02:23;;;;;;;5.07;4.57;;;5.60;99.90;;;-141.84;79.42;19159.47;5033372;28;20206;-75
2023/04/20 05:04:51;;;;;;;5.00;4.50;;;5.60;99.90;;;-141.84;79.73;19139.16;5033517;28;20297;-77
2023/04/20 05:07:20;;;;;;;6.17;4.90;;;5.70;99.90;;;-141.84;79.06;19110.72;5033524;28;20210;-75
2023/04/20 05:09:49;;;;;;;5.50;5.00;;;5.60;99.90;;;-141.84;79.19;19151.34;5033380;28;20229;-75
2023/04/20 05:12:18;;;;;;;6.77;6.03;;;5.70;99.90;;;-141.84;79.04;19145.25;5033117;28;20216;-75
2023/04/20 05:14:46;;;;;;;6.07;5.50;;;5.70;99.90;;;-141.84;78.99;19157.44;5032966;28;20213;-56
2023/04/20 05:17:14;;;;;;;6.47;5.87;;;5.80;99.90;;;-141.84;79.30;19169.63;5032801;28;20577;-54
2023/04/20 05:19:42;;;;;;;5.87;5.27;;;5.80;99.90;;;-141.84;78.15;19192.00;5033114;28;20248;-56
2023/04/20 05:22:10;;;;;;;6.53;5.60;;;5.80;99.90;;;-141.84;78.15;19163.53;5033121;28;20209;-55
2023/04/20 05:24:39;;;;;;;6.07;5.47;;;5.90;99.90;;;-141.84;78.73;19173.69;5033109;28;20319;-56
2023/04/20 05:27:10;;;;;;;6.97;6.27;;;5.80;99.90;;;-141.84;78.46;19185.88;5032689;28;20234;-56
2023/04/20 05:29:38;;;;;;;8.33;6.17;;;5.90;99.90;;;-141.84;77.80;19208.25;5032503;28;20214;-56
2023/04/20 05:32:06;;;;;;;7.60;6.70;;;5.90;99.90;;;-141.84;77.71;19179.78;5032924;28;20210;-56
2023/04/20 05:34:35;;;;;;;10.33;7.23;;;5.90;99.90;;;-141.84;78.21;19169.63;5032459;28;20289;-55
2023/04/20 05:37:05;;;;;;;7.57;6.80;;;5.80;99.90;;;-141.84;78.48;19198.09;5032527;28;20605;-57
2023/04/20 05:39:33;;;;;;;7.10;6.40;;;5.90;99.90;;;-141.84;78.18;19192.00;5032652;28;20213;-56
2023/04/20 05:42:01;;;;;;;7.60;6.80;;;5.90;99.90;;;-141.84;77.02;19175.72;5032821;28;20198;-54
2023/04/20 05:44:32;;;;;;;8.17;7.37;;;5.90;99.90;;;-141.84;77.64;19228.56;5032092;28;20218;-55
2023/04/20 05:47:00;;;;;;;7.63;6.93;;;6.10;99.90;;;-141.84;76.60;19204.19;5032581;28;20205;-55
2023/04/20 05:49:28;;;;;;;7.63;6.93;;;6.20;99.90;;;-141.84;76.95;19204.19;5032542;28;20230;-55
2023/04/20 05:51:57;;;;;;;8.27;7.47;;;6.10;99.90;;;-141.84;77.02;19179.78;5032647;28;20568;-58
2023/04/20 05:54:27;;;;;;;8.37;7.57;;;6.10;99.90;;;-141.84;78.18;19187.91;5032381;28;20300;-58
2023/04/20 05:56:56;;;;;;;8.80;7.97;;;6.10;99.90;;;-141.84;77.62;19228.56;5032574;28;20209;-57
2023/04/20 05:59:25;;;;;;;9.60;8.57;;;6.10;99.90;;;-141.84;77.29;19218.41;5031739;28;20683;-57
2023/04/20 06:01:55;;;;;;;9.93;8.93;;;6.20;99.90;;;-141.84;76.30;19183.84;5032431;28;20212;-55
2023/04/20 06:04:23;;;;;;;9.80;8.80;;;6.30;99.90;;;-141.84;75.48;19248.88;5032279;28;20197;-57
2023/04/20 06:06:51;;;;;;;9.50;8.50;;;6.40;99.90;;;-141.84;73.89;19242.78;5031923;28;20665;-56
2023/04/20 06:09:20;;;;;;;9.17;8.27;;;6.50;99.90;;;-141.84;72.77;19265.13;5032000;28;20744;-55
2023/04/20 06:11:48;;;;;;;9.80;8.80;;;6.60;99.90;;;-141.84;73.16;19265.13;5032152;28;20213;-56
2023/04/20 06:14:16;;;;;;;9.23;8.40;;;6.60;99.90;;;-141.84;73.66;19273.28;5032169;28;20218;-56
2023/04/20 06:16:44;;;;;;;10.07;9.07;;;6.70;99.90;;;-141.84;71.35;19305.78;5032017;28;20205;-58
2023/04/20 06:19:14;;;;;;;9.50;8.60;;;6.80;99.90;;;-141.84;71.08;19291.56;5031780;28;20567;-58
2023/04/20 06:21:42;;;;;;;9.57;8.57;;;6.80;99.90;;;-141.84;70.67;19313.91;5031262;28;20206;-57
2023/04/20 06:24:11;;;;;;;9.90;8.90;;;6.90;99.90;;;-141.84;71.04;19311.88;5031711;28;20202;-56
2023/04/20 06:26:39;;;;;;;10.07;9.07;;;7.00;99.90;;;-141.84;69.85;19362.69;5031567;28;20241;-56
2023/04/20 06:29:07;;;;;;;10.60;9.27;;;7.10;99.90;;;-141.84;68.93;19360.66;5031577;28;20222;-55
2023/04/20 06:31:35;;;;;;;10.90;9.80;;;7.20;99.90;;;-141.84;68.46;19348.47;5031655;28;20209;-56
2023/04/20 06:34:04;;;;;;;9.97;9.07;;;7.40;99.90;;;-141.84;68.71;19334.22;5031160;28;20690;-56
2023/04/20 06:36:33;;;;;;;10.90;9.77;;;7.20;99.90;;;-141.84;69.81;19287.50;5031613;28;20202;-56
2023/04/20 06:39:01;;;;;;;11.07;9.97;;;6.90;99.90;;;-141.84;70.43;19320.00;5031433;28;20659;-54
2023/04/20 06:41:30;;;;;;;11.07;9.90;;;6.90;99.90;;;-141.84;69.56;19263.09;5031801;28;20202;-57
2023/04/20 06:43:58;;;;;;;12.23;10.10;;;6.80;99.90;;;-141.84;69.69;19275.31;5031427;28;20198;-55
2023/04/20 06:46:26;;;;;;;11.53;10.33;;;6.70;99.90;;;-141.84;70.40;19309.84;5031486;28;20234;-56
2023/04/20 06:48:54;;;;;;;11.20;10.10;;;6.70;99.90;;;-141.84;70.03;19348.47;5031446;28;20210;-56
2023/04/20 06:51:23;;;;;;;10.23;9.33;;;6.80;99.90;;;-141.84;68.41;19356.59;5031832;28;20202;-55
2023/04/20 06:53:53;;;;;;;10.00;9.10;;;7.00;99.90;;;-141.84;68.44;19364.72;5031716;28;20202;-56
2023/04/20 06:56:21;;;;;;;9.90;9.00;;;7.10;99.90;;;-141.84;66.83;19374.88;5031815;28;20189;-55
2023/04/20 06:58:49;;;;;;;9.73;8.73;;;7.10;99.90;;;-141.84;67.78;19360.66;5031590;28;20210;-56
2023/04/20 07:01:18;;;;;;;9.63;8.70;;;7.00;99.90;;;-141.84;67.80;19362.69;5031191;28;20209;-56
2023/04/20 07:03:46;;;;;;;9.07;8.17;;;7.20;99.90;;;-141.84;66.68;19391.13;5031127;28;20201;-57
2023/04/20 07:06:15;;;;;;;9.13;8.23;;;7.20;99.90;;;-141.84;67.12;19370.81;5030008;28;20305;-55
2023/04/20 07:08:44;;;;;;;8.90;8.00;;;7.20;99.90;;;-141.84;67.15;19370.81;5030632;28;20206;-57
2023/04/20 07:11:13;;;;;;;9.60;8.57;;;7.20;99.90;;;-141.84;66.89;19399.25;5030548;28;20221;-57
2023/04/20 07:13:41;;;;;;;9.80;8.80;;;7.30;99.90;;;-141.84;66.51;19380.97;5031015;28;20210;-56
2023/04/20 07:16:10;;;;;;;9.70;8.70;;;7.30;99.90;;;-141.84;66.49;19417.56;5030789;28;20198;-55
2023/04/20 07:18:38;;;;;;;8.83;8.03;;;7.40;99.90;;;-141.84;65.63;19427.72;5031369;28;20210;-57
2023/04/20 07:21:06;;;;;;;10.00;9.00;;;7.50;99.90;;;-141.84;66.05;19378.94;5031129;28;20290;-55
2023/04/20 07:23:34;;;;;;;9.70;8.80;;;7.30;99.90;;;-141.84;65.70;19389.09;5031163;28;20561;-55
2023/04/20 07:26:02;;;;;;;10.40;9.40;;;7.40;99.90;;;-141.84;65.15;19405.34;5031189;28;20242;-57
2023/04/20 07:28:33;;;;;;;9.80;8.90;;;7.30;99.90;;;-141.84;65.13;19376.91;5031102;28;20206;-57
2023/04/20 07:31:01;;;;;;;8.70;7.90;;;7.40;99.90;;;-141.84;64.51;19458.19;5031191;28;20266;-55
2023/04/20 07:33:30;;;;;;;9.30;8.40;;;7.60;99.90;;;-141.84;64.14;19431.78;5031483;28;20202;-58
2023/04/20 07:35:59;;;;;;;9.10;7.90;;;7.70;99.90;;;-141.84;63.33;19480.53;5031843;28;20210;-56
2023/04/20 07:38:27;;;;;;;9.47;8.57;;;7.90;99.90;;;-141.84;62.49;19472.41;5031374;28;20304;-54
2023/04/20 07:40:55;;;;;;;8.97;8.17;;;8.00;99.90;;;-141.84;63.50;19484.59;5031386;28;20203;-57
2023/04/20 07:43:23;;;;;;;9.53;8.27;;;7.90;99.90;;;-141.84;63.78;19456.16;5031208;28;20202;-58
2023/04/20 07:45:53;;;;;;;8.63;7.83;;;7.80;99.90;;;-141.84;64.22;19433.81;5030749;28;20584;-56
2023/04/20 07:48:21;;;;;;;8.53;7.73;;;7.80;99.90;;;-141.84;63.82;19443.97;5034833;28;20235;-56
2023/04/20 07:50:49;;;;;;;8.80;7.87;;;7.90;99.90;;;-141.84;63.53;19488.69;5034874;28;20724;-55
2023/04/20 07:53:17;;;;;;;8.90;7.83;;;8.00;99.90;;;-141.84;62.58;19545.56;5034848;28;20214;-57
2023/04/20 07:55:45;;;;;;;8.57;7.77;;;8.20;99.90;;;-141.84;61.20;19549.63;5034515;28;20674;-57
2023/04/20 07:58:16;;;;;;;8.90;8.03;;;8.60;99.90;;;-141.84;61.03;19596.38;5034547;28;20273;-58
2023/04/20 08:00:46;;;;;;;9.30;8.40;;;8.80;99.90;;;-141.84;60.37;19659.38;5034410;28;20202;-57
2023/04/20 08:03:15;;;;;;;9.20;8.30;;;9.00;99.90;;;-141.84;59.14;19657.34;5034306;28;20205;-56
2023/04/20 08:05:44;;;;;;;9.17;8.27;;;9.20;99.90;;;-141.84;59.05;19685.81;5034877;28;20205;-56
2023/04/20 08:08:12;;;;;;;8.47;7.57;;;9.50;99.90;;;-141.84;58.63;19738.66;5034118;28;20206;-58
2023/04/20 08:10:40;;;;;;;8.87;8.07;;;9.60;99.90;;;-141.84;58.40;19714.25;5034446;28;20226;-58
2023/04/20 08:13:09;;;;;;;10.20;9.23;;;9.70;99.90;;;-141.84;59.40;19649.22;5034196;28;20228;-56
2023/04/20 08:15:37;;;;;;;9.30;8.40;;;9.50;99.90;;;-141.84;59.92;19655.31;5033930;28;20662;-54
2023/04/20 08:18:06;;;;;;;9.10;8.23;;;9.30;99.90;;;-141.84;60.16;19626.88;4999321;28;20202;-58
2023/04/20 08:20:35;;;;;;;9.17;8.27;;;9.20;99.90;;;-141.84;61.07;19610.59;5034231;28;20198;-56
2023/04/20 08:23:03;;;;;;;10.00;9.03;;;9.00;99.90;;;-141.84;61.92;19533.38;5033979;28;20626;-58
2023/04/20 08:25:32;;;;;;;9.43;8.53;;;8.70;99.90;;;-141.84;62.84;19515.09;5033903;28;20229;-59
2023/04/20 08:28:00;;;;;;;10.10;8.93;;;8.50;99.90;;;-141.84;63.47;19515.09;5033959;28;20217;-55
2023/04/20 08:30:29;;;;;;;9.90;8.90;;;8.30;99.90;;;-141.84;64.50;19488.69;5033593;28;20337;-57
2023/04/20 08:32:59;;;;;;;9.70;8.70;;;8.10;99.90;;;-141.84;64.46;19437.88;5033630;28;20210;-55
2023/04/20 08:35:27;;;;;;;9.27;8.37;;;7.90;99.90;;;-141.84;64.44;19468.34;5033626;28;20238;-56
2023/04/20 08:37:56;;;;;;;9.90;8.90;;;7.90;99.90;;;-141.84;64.22;19478.50;5033586;28;20747;-56
2023/04/20 08:40:27;;;;;;;9.93;8.93;;;7.90;99.90;;;-141.84;63.51;19513.06;5033784;28;20198;-57
2023/04/20 08:42:56;;;;;;;11.40;10.30;;;8.10;99.90;;;-141.84;63.74;19496.81;5033420;28;20182;-56
2023/04/20 08:45:24;;;;;;;11.47;10.27;;;8.10;99.90;;;-141.84;63.42;19492.75;5033621;28;20285;-57
2023/04/20 08:47:53;;;;;;;10.80;9.70;;;8.30;99.90;;;-141.84;63.51;19517.13;5033556;28;20576;-57
2023/04/20 08:50:22;;;;;;;10.13;9.10;;;8.30;99.90;;;-141.84;63.62;19529.31;5033693;28;20230;-58
2023/04/20 08:52:50;;;;;;;10.73;9.63;;;8.50;99.90;;;-141.84;62.37;19563.88;5033696;28;20202;-57
2023/04/20 08:55:20;;;;;;;10.93;9.80;;;8.70;99.90;;;-141.84;61.60;19561.84;5033565;28;20207;-58
2023/04/20 08:57:49;;;;;;;11.60;10.40;;;8.70;99.90;;;-141.84;61.78;19549.63;5033543;28;20560;-57
2023/04/20 09:00:18;;;;;;;11.23;10.13;;;8.80;99.90;;;-141.84;61.76;19574.03;5033653;28;20206;-60
2023/04/20 09:02:51;;;;;;;11.83;10.63;;;8.90;99.90;;;-141.84;61.51;19618.75;5033403;28;20205;-58
2023/04/20 09:05:27;;;;;;;10.10;9.03;;;9.00;99.90;;;-141.84;61.64;19614.66;5033162;28;20179;-56
2023/04/20 09:07:58;;;;;;;11.30;10.20;;;9.10;99.90;;;-141.84;61.49;19616.72;5033106;28;20226;-58
2023/04/20 09:10:40;;;;;;;11.00;9.90;;;9.10;99.90;;;-141.84;61.24;19616.72;5032994;28;20222;-56
2023/04/20 09:13:08;;;;;;;11.63;10.53;;;9.20;99.90;;;-141.84;61.66;19606.53;5033159;28;20283;-56
2023/04/20 09:15:37;;;;;;;10.57;9.57;;;9.20;99.90;;;-141.84;61.41;19608.56;5033241;28;20197;-57
2023/04/20 09:18:14;;;;;;;11.50;10.40;;;9.20;99.90;;;-141.84;61.64;19602.47;5032672;28;20213;-58
2023/04/20 09:20:42;;;;;;;10.47;9.47;;;9.20;99.90;;;-141.84;61.53;19643.13;5033136;28;20530;-59
2023/04/20 09:23:14;;;;;;;10.87;9.77;;;9.30;99.90;;;-141.84;60.41;19683.78;5033089;28;20202;-58
2023/04/20 09:25:49;;;;;;;10.00;9.00;;;9.50;99.90;;;-141.84;60.38;19612.63;5032945;28;20241;-56
2023/04/20 09:28:18;;;;;;;10.70;9.60;;;9.40;99.90;;;-141.84;60.22;19665.47;5032853;28;20634;-57
2023/04/20 09:30:50;;;;;;;10.87;9.77;;;9.50;99.90;;;-141.84;60.33;19700.03;5033196;28;20237;-60
2023/04/20 09:33:19;;;;;;;9.63;8.63;;;9.50;99.90;;;-141.84;58.73;19736.59;5033027;28;20228;-58
2023/04/20 09:35:47;;;;;;;10.07;9.07;;;9.90;99.90;;;-141.84;56.37;19828.06;5032953;28;20666;-56
2023/04/20 09:38:17;;;;;;;9.90;8.87;;;10.40;99.90;;;-141.84;56.64;19821.97;5032927;28;20216;-57
2023/04/20 09:40:46;;;;;;;10.37;9.37;;;10.70;99.90;;;-141.84;58.11;19761.00;5032778;28;20202;-55
2023/04/20 09:43:20;;;;;;;10.50;9.40;;;10.40;99.90;;;-141.84;59.60;19704.09;5032638;28;20206;-56
2023/04/20 09:45:49;;;;;;;10.07;9.13;;;10.20;99.90;;;-141.84;59.98;19714.25;5033206;28;20289;-77
2023/04/20 09:48:19;;;;;;;9.53;8.60;;;9.90;99.90;;;-141.84;59.81;19691.91;5040590;28;20225;-77
2023/04/20 09:50:48;;;;;;;10.00;9.00;;;10.00;99.90;;;-141.84;59.74;19714.25;5042208;28;20237;-73
2023/04/20 09:53:19;;;;;;;10.07;9.07;;;10.00;99.90;;;-141.84;59.61;19698.00;5043000;28;20194;-75
2023/04/20 09:55:50;;;;;;;9.53;8.53;;;9.90;99.90;;;-141.84;58.04;19754.91;5042461;28;20270;-73
2023/04/20 09:58:20;;;;;;;10.10;9.10;;;10.10;99.90;;;-141.84;57.59;19803.69;5042688;28;20223;-74
2023/04/20 10:00:49;;;;;;;9.60;8.60;;;10.30;99.90;;;-141.84;56.30;19848.38;5041436;28;20256;-74
2023/04/20 10:03:18;;;;;;;9.80;8.80;;;10.50;99.90;;;-141.84;55.91;19856.53;5035893;28;20194;-75
2023/04/20 10:05:47;;;;;;;9.33;8.33;;;10.80;99.90;;;-141.84;56.29;19838.22;5042747;28;20206;-73
2023/04/20 10:08:17;;;;;;;10.83;9.03;;;10.90;99.90;;;-141.84;55.91;19868.72;5042725;28;20221;-75
2023/04/20 10:10:47;;;;;;;9.23;8.33;;;10.90;99.90;;;-141.84;56.07;19866.69;5032408;28;20224;-74
2023/04/20 10:13:18;;;;;;;8.93;8.03;;;11.00;99.90;;;-141.84;54.99;19935.78;5032440;28;20194;-74
2023/04/20 10:15:47;;;;;;;9.97;8.90;;;11.20;99.90;;;-141.84;54.31;19915.47;5032039;28;20368;-75
2023/04/20 10:18:22;;;;;;;8.77;7.97;;;11.40;99.90;;;-141.84;53.96;19956.09;5032607;28;20252;-74